Time;durP1;ratioP1;P1;durP2;ratioP2;P2;SDS_P1;SDS_P2;PMS_P1;PMS_P2;Temp;Humidity;BMP_temperature;BMP_pressure;BME280_temperature;BME280_humidity;BME280_pressure;Samples;Min_cycle;Max_cycle;Signal;HPM_P1;HPM_P2
2022/11/05 00:09:29;;;;;;;20.23;9.90;;;5.30;98.00;;;;;;5076678;28;20134;-77
2022/11/05 00:16:42;;;;;;;21.20;9.52;;;5.40;98.00;;;;;;5062705;28;20032;-75
2022/11/05 00:17:33;;;;;;;14.90;8.75;;;5.50;97.80;;;;;;5072802;28;20093;-75
2022/11/05 00:19:59;;;;;;;17.65;8.85;;;5.60;97.60;;;;;;5080081;28;20035;-76
2022/11/05 00:25:15;;;;;;;15.95;7.95;;;5.80;97.30;;;;;;5081288;28;20036;-77
2022/11/05 00:27:48;;;;;;;16.27;9.20;;;5.80;97.20;;;;;;5062566;28;20035;-77
2022/11/05 00:30:20;;;;;;;14.50;8.90;;;5.80;97.10;;;;;;5062578;28;20138;-77
2022/11/05 00:32:47;;;;;;;14.45;8.43;;;5.80;96.70;;;;;;5062935;28;20035;-77
2022/11/05 00:35:14;;;;;;;15.15;8.13;;;5.90;96.00;;;;;;5062998;28;20074;-76
2022/11/05 00:37:40;;;;;;;11.82;7.75;;;5.90;95.40;;;;;;5062533;28;20101;-77
2022/11/05 00:40:07;;;;;;;13.00;7.38;;;5.90;95.30;;;;;;5081249;28;20089;-77
2022/11/05 00:45:18;;;;;;;13.13;7.55;;;5.80;95.20;;;;;;5079567;28;20058;-76
2022/11/05 00:50:30;;;;;;;14.23;7.65;;;5.90;95.30;;;;;;5078581;28;20035;-78
2022/11/05 00:53:00;;;;;;;19.20;9.20;;;5.90;95.90;;;;;;5061545;28;20036;-76
2022/11/05 00:55:30;;;;;;;16.80;9.15;;;5.90;96.10;;;;;;5080222;28;20119;-77
2022/11/05 00:57:56;;;;;;;16.48;8.40;;;6.00;96.30;;;;;;5073704;28;20384;-77
2022/11/05 01:00:23;;;;;;;12.60;7.55;;;6.00;96.30;;;;;;5062107;28;20390;-76
2022/11/05 01:02:48;;;;;;;14.32;7.50;;;6.10;96.10;;;;;;5080461;28;20044;-77
2022/11/05 01:05:15;;;;;;;13.27;7.25;;;6.10;95.90;;;;;;5079649;28;20036;-77
2022/11/05 01:07:40;;;;;;;16.52;8.20;;;6.20;95.80;;;;;;5078991;28;20621;-76
2022/11/05 01:10:06;;;;;;;15.48;8.32;;;6.10;95.80;;;;;;5080747;28;20108;-77
2022/11/05 01:12:32;;;;;;;14.70;8.07;;;6.10;96.00;;;;;;5059619;28;20125;-77
2022/11/05 01:14:58;;;;;;;13.18;8.00;;;6.10;96.10;;;;;;5081202;28;20528;-77
2022/11/05 01:17:24;;;;;;;14.05;8.38;;;6.00;96.20;;;;;;5062031;28;20040;-77
2022/11/05 01:19:50;;;;;;;13.43;7.75;;;6.10;95.70;;;;;;5079113;28;20433;-77
2022/11/05 01:22:15;;;;;;;15.98;7.65;;;6.10;95.20;;;;;;5082734;28;20089;-77
2022/11/05 01:24:41;;;;;;;11.50;7.25;;;6.00;95.00;;;;;;5084424;28;20038;-76
2022/11/05 01:27:07;;;;;;;16.48;6.78;;;5.90;95.00;;;;;;5083982;28;20035;-77
2022/11/05 01:29:32;;;;;;;13.55;7.30;;;5.90;94.90;;;;;;5064847;28;20065;-77
2022/11/05 01:31:58;;;;;;;13.20;7.65;;;5.80;94.80;;;;;;5064602;28;20032;-77
2022/11/05 01:34:23;;;;;;;13.80;6.80;;;5.80;95.00;;;;;;5082402;28;20112;-77
2022/11/05 01:36:49;;;;;;;10.85;6.38;;;5.80;94.90;;;;;;5049920;28;20495;-76
2022/11/05 01:39:14;;;;;;;12.23;6.47;;;5.80;94.50;;;;;;5075777;28;20040;-77
2022/11/05 01:41:40;;;;;;;9.90;6.28;;;5.80;94.40;;;;;;5064498;28;20078;-77
2022/11/05 01:44:46;;;;;;;12.18;6.10;;;5.80;94.30;;;;;;5063549;28;20386;-76
2022/11/05 01:47:38;;;;;;;14.82;7.15;;;5.80;94.40;;;;;;5065493;28;20182;-76
2022/11/05 01:50:29;;;;;;;13.57;6.97;;;5.80;94.70;;;;;;5082692;28;20089;-76
2022/11/05 01:53:15;;;;;;;11.18;6.43;;;5.70;95.00;;;;;;5071113;28;20104;-77
2022/11/05 01:55:46;;;;;;;9.98;6.30;;;5.70;94.90;;;;;;5082437;28;20113;-77
2022/11/05 01:58:18;;;;;;;9.63;5.93;;;5.60;94.60;;;;;;5083899;28;20105;-77
2022/11/05 02:00:44;;;;;;;12.52;6.22;;;5.70;94.70;;;;;;5082682;28;20012;-77
2022/11/05 02:03:11;;;;;;;13.85;6.53;;;5.70;94.90;;;;;;5083727;28;20048;-77
2022/11/05 02:05:39;;;;;;;11.65;6.60;;;5.60;95.00;;;;;;5047437;28;20431;-77
2022/11/05 02:08:07;;;;;;;10.90;5.90;;;5.60;94.90;;;;;;5083862;28;20462;-77
2022/11/05 02:10:32;;;;;;;14.63;7.13;;;5.50;95.00;;;;;;5081713;28;20447;-77
2022/11/05 02:12:58;;;;;;;14.98;7.75;;;5.60;95.20;;;;;;5082756;28;20035;-76
2022/11/05 02:15:37;;;;;;;12.73;7.70;;;5.60;95.30;;;;;;5071426;28;20021;-77
2022/11/05 02:18:21;;;;;;;13.80;7.70;;;5.60;95.60;;;;;;5061917;28;20147;-77
2022/11/05 02:21:11;;;;;;;11.98;7.10;;;5.70;95.80;;;;;;5063161;28;20559;-78
2022/11/05 02:24:00;;;;;;;10.63;6.75;;;5.70;95.60;;;;;;5062395;28;20047;-77
2022/11/05 02:26:34;;;;;;;14.30;7.05;;;5.60;95.40;;;;;;5054388;28;20400;-77
2022/11/05 02:29:28;;;;;;;13.18;6.75;;;5.70;95.20;;;;;;5065357;28;20227;-77
2022/11/05 02:32:22;;;;;;;10.90;6.97;;;5.60;95.20;;;;;;5082428;28;20046;-78
2022/11/05 02:35:00;;;;;;;15.07;7.78;;;5.50;95.00;;;;;;5081461;28;20080;-77
2022/11/05 02:37:40;;;;;;;11.55;6.57;;;5.50;94.90;;;;;;5068274;28;20028;-77
2022/11/05 02:40:27;;;;;;;12.95;7.22;;;5.50;94.90;;;;;;5081995;28;20035;-77
2022/11/05 02:43:15;;;;;;;12.05;7.05;;;5.50;95.20;;;;;;5082910;28;20048;-76
2022/11/05 02:46:08;;;;;;;16.73;8.50;;;5.50;95.30;;;;;;5073366;28;20047;-78
2022/11/05 02:49:06;;;;;;;14.52;8.57;;;5.50;96.00;;;;;;5081255;28;20081;-77
2022/11/05 02:51:41;;;;;;;19.42;8.20;;;5.50;96.30;;;;;;5082129;28;20394;-77
2022/11/05 02:54:31;;;;;;;12.38;7.53;;;5.50;96.60;;;;;;5082681;28;20397;-78
2022/11/05 02:56:59;;;;;;;13.30;7.53;;;5.50;96.80;;;;;;5065477;28;20028;-78
2022/11/05 02:59:25;;;;;;;11.85;7.00;;;5.60;96.70;;;;;;5075442;28;20034;-77
2022/11/05 03:01:52;;;;;;;11.98;7.40;;;5.60;96.50;;;;;;5080027;28;20040;-77
2022/11/05 03:04:20;;;;;;;11.35;7.05;;;5.50;96.30;;;;;;5082855;28;20463;-77
2022/11/05 03:06:55;;;;;;;13.02;7.00;;;5.50;96.00;;;;;;5065155;28;20063;-77
2022/11/05 03:09:29;;;;;;;13.65;7.05;;;5.50;95.60;;;;;;5058472;28;20054;-77
2022/11/05 03:12:25;;;;;;;13.05;6.35;;;5.40;95.50;;;;;;5074316;28;20043;-77
2022/11/05 03:15:24;;;;;;;13.85;6.40;;;5.30;95.50;;;;;;5062754;28;20344;-77
2022/11/05 03:18:08;;;;;;;9.98;6.22;;;5.30;95.70;;;;;;5052665;28;20036;-78
2022/11/05 03:20:38;;;;;;;14.38;6.13;;;5.30;96.00;;;;;;5081123;28;20134;-77
2022/11/05 03:23:13;;;;;;;17.85;7.43;;;5.30;96.30;;;;;;5081289;28;20044;-78
2022/11/05 03:25:47;;;;;;;14.50;7.70;;;5.30;96.20;;;;;;5051417;28;20262;-77
2022/11/05 03:28:14;;;;;;;10.50;7.63;;;5.30;96.30;;;;;;5061661;28;20074;-77
2022/11/05 03:30:42;;;;;;;12.57;7.65;;;5.40;96.30;;;;;;5061206;28;20027;-77
2022/11/05 03:33:16;;;;;;;12.60;7.25;;;5.40;96.30;;;;;;5051343;28;20431;-77
2022/11/05 03:35:53;;;;;;;10.23;6.72;;;5.50;96.10;;;;;;5077544;28;20032;-77
2022/11/05 03:38:24;;;;;;;9.98;7.30;;;5.60;95.90;;;;;;5063803;28;20059;-77
2022/11/05 03:40:53;;;;;;;12.65;7.38;;;5.70;95.80;;;;;;5055071;28;20039;-77
2022/11/05 03:43:21;;;;;;;13.68;7.57;;;5.80;95.60;;;;;;5082213;28;20032;-77
2022/11/05 03:45:56;;;;;;;11.15;7.03;;;5.90;95.50;;;;;;5061718;28;20305;-77
2022/11/05 03:48:26;;;;;;;10.75;7.50;;;5.90;95.40;;;;;;5081096;28;20063;-77
2022/11/05 03:51:13;;;;;;;11.90;7.32;;;6.00;95.50;;;;;;5056902;28;20051;-78
2022/11/05 03:53:52;;;;;;;12.02;7.07;;;6.10;95.10;;;;;;5081393;28;20170;-77
2022/11/05 03:56:25;;;;;;;11.02;7.35;;;6.10;95.00;;;;;;5063376;28;20098;-78
2022/11/05 03:58:52;;;;;;;10.57;6.60;;;6.00;95.00;;;;;;5061956;28;20135;-78
2022/11/05 04:01:17;;;;;;;11.85;7.05;;;6.00;94.80;;;;;;5076051;28;20035;-77
2022/11/05 04:03:43;;;;;;;10.98;6.40;;;6.00;94.70;;;;;;5062523;28;20420;-77
2022/11/05 04:14:22;;;;;;;13.82;6.47;;;5.80;94.80;;;;;;5067557;28;20551;-77
2022/11/05 04:17:08;;;;;;;12.23;6.45;;;5.80;94.80;;;;;;5082192;28;20052;-77
2022/11/05 04:25:18;;;;;;;11.07;6.85;;;5.70;95.20;;;;;;5069820;28;20134;-76
2022/11/05 04:27:44;;;;;;;11.80;6.93;;;5.70;95.30;;;;;;5073578;28;20024;-77
2022/11/05 04:30:20;;;;;;;12.00;7.18;;;5.70;95.20;;;;;;5081301;28;20017;-78
2022/11/05 04:33:06;;;;;;;12.43;7.40;;;5.80;95.20;;;;;;5063436;28;20059;-78
2022/11/05 04:35:37;;;;;;;15.00;8.63;;;5.80;95.00;;;;;;5081821;28;20579;-77
2022/11/05 04:38:05;;;;;;;15.02;7.47;;;5.80;95.20;;;;;;5080751;28;20412;-77
2022/11/05 04:40:31;;;;;;;12.02;7.60;;;5.80;95.20;;;;;;5081525;28;20082;-77
2022/11/05 04:42:57;;;;;;;17.30;8.52;;;5.80;95.30;;;;;;5062050;28;20016;-77
2022/11/05 04:45:24;;;;;;;11.45;7.00;;;5.80;95.30;;;;;;5081861;28;20028;-77
2022/11/05 04:47:49;;;;;;;15.38;7.75;;;5.80;95.20;;;;;;5081651;28;20250;-77
2022/11/05 04:50:15;;;;;;;11.98;7.50;;;5.90;95.20;;;;;;5060188;28;20067;-78
2022/11/05 04:52:41;;;;;;;16.35;7.90;;;5.90;95.20;;;;;;5078596;28;20089;-77
2022/11/05 04:55:07;;;;;;;14.52;7.65;;;5.90;95.10;;;;;;5075727;28;20145;-77
2022/11/05 04:57:33;;;;;;;16.50;8.75;;;5.90;95.00;;;;;;5083779;28;20110;-78
2022/11/05 04:59:59;;;;;;;14.77;9.07;;;5.90;95.00;;;;;;5083425;28;20062;-77
2022/11/05 05:02:25;;;;;;;17.17;9.15;;;5.90;95.10;;;;;;5076576;28;20044;-77
2022/11/05 05:04:50;;;;;;;18.50;8.63;;;5.90;95.40;;;;;;5071372;28;20028;-78
2022/11/05 05:07:16;;;;;;;16.42;8.35;;;5.90;95.60;;;;;;5084902;28;20405;-78
2022/11/05 05:09:41;;;;;;;14.40;8.20;;;6.00;95.60;;;;;;5066671;28;20046;-76
2022/11/05 05:12:07;;;;;;;15.43;8.50;;;6.00;95.40;;;;;;5084228;28;20038;-77
2022/11/05 05:14:33;;;;;;;13.75;8.82;;;6.00;95.60;;;;;;5056755;28;20557;-78
2022/11/05 05:16:59;;;;;;;20.55;8.13;;;6.00;95.70;;;;;;5075506;28;20027;-77
2022/11/05 05:19:25;;;;;;;16.88;8.43;;;6.00;95.60;;;;;;5067435;28;20085;-77
2022/11/05 05:21:50;;;;;;;13.85;8.00;;;6.10;95.50;;;;;;5085424;28;20406;-78
2022/11/05 05:24:18;;;;;;;17.98;8.55;;;6.00;95.50;;;;;;5065901;28;20024;-78
2022/11/05 05:26:48;;;;;;;14.32;7.63;;;6.00;95.30;;;;;;5065306;28;20724;-77
2022/11/05 05:29:15;;;;;;;12.68;7.00;;;6.00;94.90;;;;;;5067074;28;20301;-77
2022/11/05 05:31:41;;;;;;;12.25;6.60;;;6.00;95.00;;;;;;5057758;28;20100;-77
2022/11/05 05:34:09;;;;;;;15.10;7.07;;;5.90;95.00;;;;;;5084266;28;20039;-77
2022/11/05 05:36:35;;;;;;;12.23;7.03;;;6.00;94.70;;;;;;5084655;28;20495;-77
2022/11/05 05:39:03;;;;;;;12.07;7.03;;;5.90;94.80;;;;;;5081993;28;20051;-78
2022/11/05 05:41:29;;;;;;;10.77;6.95;;;5.90;94.90;;;;;;5058521;28;20063;-78
2022/11/05 05:43:54;;;;;;;13.80;8.07;;;6.00;94.90;;;;;;5046241;28;20138;-76
2022/11/05 05:46:20;;;;;;;14.32;7.88;;;5.90;94.90;;;;;;5067902;28;20450;-77
2022/11/05 05:48:51;;;;;;;15.07;8.00;;;5.80;95.10;;;;;;5067588;28;20040;-77
2022/11/05 05:51:17;;;;;;;16.03;8.70;;;5.90;95.10;;;;;;5071948;28;20028;-77
2022/11/05 05:53:43;;;;;;;13.07;7.63;;;5.90;95.00;;;;;;5083111;28;20517;-77
2022/11/05 05:56:09;;;;;;;18.10;8.13;;;5.90;94.90;;;;;;5065604;28;20398;-77
2022/11/05 05:58:37;;;;;;;13.43;7.57;;;5.90;94.80;;;;;;5053852;28;20044;-77
2022/11/05 06:01:10;;;;;;;15.57;7.95;;;5.90;94.90;;;;;;5068860;28;20112;-77
2022/11/05 06:03:35;;;;;;;12.85;8.40;;;5.90;94.90;;;;;;5052324;28;20044;-77
2022/11/05 06:06:07;;;;;;;15.15;7.82;;;5.90;94.90;;;;;;5069363;28;20112;-77
2022/11/05 06:08:34;;;;;;;14.10;7.65;;;5.90;95.10;;;;;;5082427;28;20085;-77
2022/11/05 06:11:00;;;;;;;10.80;7.30;;;5.90;95.30;;;;;;5072672;28;20033;-77
2022/11/05 06:13:26;;;;;;;13.50;7.90;;;5.90;95.20;;;;;;5045479;28;20029;-77
2022/11/05 06:15:51;;;;;;;15.88;7.93;;;5.90;95.10;;;;;;5068425;28;20028;-77
2022/11/05 06:18:18;;;;;;;16.45;8.43;;;6.00;95.00;;;;;;5080641;28;20047;-76
2022/11/05 06:20:43;;;;;;;13.77;7.95;;;6.10;95.00;;;;;;5083272;28;20094;-77
2022/11/05 06:23:10;;;;;;;13.15;7.35;;;6.10;95.00;;;;;;5083495;28;20048;-77
2022/11/05 06:25:35;;;;;;;16.65;7.68;;;6.20;95.00;;;;;;5064850;28;20115;-77
2022/11/05 06:28:01;;;;;;;12.93;8.00;;;6.20;95.10;;;;;;5081360;28;20136;-77
2022/11/05 06:30:26;;;;;;;14.73;8.60;;;6.20;95.30;;;;;;5065469;28;20032;-77
2022/11/05 06:32:52;;;;;;;13.55;8.18;;;6.30;95.30;;;;;;5082864;28;20035;-77
2022/11/05 06:35:18;;;;;;;14.50;8.45;;;6.40;95.50;;;;;;5082620;28;20036;-77
2022/11/05 06:37:43;;;;;;;13.65;8.70;;;6.40;95.30;;;;;;5080306;28;20118;-77
2022/11/05 06:40:09;;;;;;;12.27;7.65;;;6.50;95.50;;;;;;5051583;28;20033;-77
2022/11/05 06:42:35;;;;;;;17.25;8.55;;;6.50;95.40;;;;;;5058553;28;20118;-77
2022/11/05 06:45:00;;;;;;;15.20;7.57;;;6.50;95.30;;;;;;5080968;28;20028;-77
2022/11/05 06:47:26;;;;;;;11.93;7.85;;;6.50;95.20;;;;;;5065008;28;20035;-77
2022/11/05 06:49:52;;;;;;;12.82;7.80;;;6.60;95.10;;;;;;5063787;28;20031;-77
2022/11/05 06:52:17;;;;;;;13.45;7.38;;;6.50;95.20;;;;;;5070504;28;20098;-77
2022/11/05 06:54:43;;;;;;;15.52;8.07;;;6.50;95.30;;;;;;5063156;28;20032;-77
2022/11/05 06:57:10;;;;;;;15.68;7.75;;;6.60;95.40;;;;;;5078603;28;20028;-78
2022/11/05 06:59:37;;;;;;;12.88;7.07;;;6.60;95.30;;;;;;5082067;28;20032;-77
2022/11/05 07:02:03;;;;;;;15.23;7.45;;;6.70;95.20;;;;;;5063941;28;20360;-78
2022/11/05 07:04:28;;;;;;;14.65;7.25;;;6.70;95.10;;;;;;5082799;28;20050;-77
2022/11/05 07:06:54;;;;;;;11.70;6.55;;;6.80;95.10;;;;;;5064004;28;20088;-77
2022/11/05 07:09:20;;;;;;;14.70;6.63;;;6.80;95.10;;;;;;5081495;28;20059;-78
2022/11/05 07:11:45;;;;;;;11.20;6.78;;;6.80;95.00;;;;;;5070553;28;20059;-78
2022/11/05 07:14:11;;;;;;;9.15;5.68;;;6.90;94.90;;;;;;5082592;28;20059;-77
2022/11/05 07:16:36;;;;;;;10.43;5.95;;;7.00;94.90;;;;;;5081922;28;20043;-77
2022/11/05 07:19:02;;;;;;;10.25;6.50;;;7.00;94.90;;;;;;5081267;28;20036;-77
2022/11/05 07:21:28;;;;;;;12.15;6.60;;;7.10;95.10;;;;;;5083272;28;20482;-77
2022/11/05 07:23:53;;;;;;;10.90;6.75;;;7.20;95.00;;;;;;5082416;28;20044;-77
2022/11/05 07:26:19;;;;;;;15.63;7.82;;;7.20;94.80;;;;;;5063515;28;20062;-77
2022/11/05 07:28:45;;;;;;;12.52;6.72;;;7.10;94.90;;;;;;5062667;28;20024;-78
2022/11/05 07:31:10;;;;;;;10.77;6.80;;;7.10;95.30;;;;;;5059809;28;20037;-77
2022/11/05 07:33:36;;;;;;;10.30;6.15;;;7.10;95.30;;;;;;5083472;28;20036;-77
2022/11/05 07:36:01;;;;;;;11.23;5.88;;;7.10;95.50;;;;;;5081225;28;20016;-77
2022/11/05 07:38:27;;;;;;;11.77;6.18;;;7.10;95.40;;;;;;5080666;28;20040;-77
2022/11/05 07:40:53;;;;;;;10.18;5.68;;;7.20;95.40;;;;;;5077605;28;20510;-77
2022/11/05 07:43:19;;;;;;;12.00;6.15;;;7.20;95.30;;;;;;5080962;28;20040;-76
2022/11/05 07:45:48;;;;;;;16.08;7.20;;;7.40;95.30;;;;;;5061689;28;20024;-76
2022/11/05 07:48:13;;;;;;;11.40;6.38;;;7.50;95.50;;;;;;5083328;28;20183;-76
2022/11/05 07:50:39;;;;;;;10.85;6.57;;;7.50;94.70;;;;;;5080091;28;20123;-76
2022/11/05 07:53:10;;;;;;;13.00;6.80;;;7.50;94.80;;;;;;5058894;28;20126;-76
2022/11/05 07:55:39;;;;;;;14.48;8.13;;;7.60;94.50;;;;;;5061338;28;20054;-76
2022/11/05 07:58:05;;;;;;;12.57;6.40;;;7.50;94.80;;;;;;5064814;28;20071;-76
2022/11/05 08:00:33;;;;;;;12.82;6.72;;;7.60;94.90;;;;;;5059644;28;20056;-76
2022/11/05 08:03:14;;;;;;;10.52;5.55;;;7.70;94.80;;;;;;5074321;28;20044;-77
2022/11/05 08:05:45;;;;;;;11.00;5.57;;;7.80;94.70;;;;;;5055473;28;20476;-76
2022/11/05 08:08:18;;;;;;;15.43;8.10;;;7.90;94.60;;;;;;5062392;28;20092;-76
2022/11/05 08:10:44;;;;;;;10.55;5.85;;;7.90;94.20;;;;;;5061786;28;20036;-77
2022/11/05 08:13:21;;;;;;;11.70;5.60;;;8.00;94.20;;;;;;5060285;28;20036;-77
2022/11/05 08:15:47;;;;;;;9.10;5.47;;;8.10;93.90;;;;;;5063032;28;20113;-77
2022/11/05 08:18:15;;;;;;;14.93;5.25;;;8.10;94.30;;;;;;5073201;28;20133;-77
2022/11/05 08:20:43;;;;;;;12.10;5.72;;;8.10;94.20;;;;;;5061849;28;20064;-77
2022/11/05 08:23:08;;;;;;;10.18;6.00;;;8.20;94.40;;;;;;5058488;28;20099;-77
2022/11/05 08:25:34;;;;;;;10.48;5.38;;;8.20;94.40;;;;;;5063190;28;20092;-76
2022/11/05 08:28:03;;;;;;;7.78;5.05;;;8.30;94.10;;;;;;5062771;28;20032;-77
2022/11/05 08:30:30;;;;;;;10.20;5.50;;;8.30;94.30;;;;;;5064345;28;20111;-77
2022/11/05 08:33:01;;;;;;;9.82;4.70;;;8.40;94.30;;;;;;5084384;28;20036;-77
2022/11/05 08:35:27;;;;;;;8.55;5.13;;;8.40;94.20;;;;;;5083149;28;20076;-77
2022/11/05 08:38:01;;;;;;;11.23;4.93;;;8.60;94.00;;;;;;5082373;28;20054;-77
2022/11/05 08:40:29;;;;;;;10.45;5.35;;;8.40;94.00;;;;;;5077760;28;20458;-77
2022/11/05 08:43:01;;;;;;;11.32;5.30;;;8.40;94.70;;;;;;5060425;28;20032;-76
2022/11/05 08:45:27;;;;;;;10.60;4.88;;;8.50;94.50;;;;;;5048410;28;20044;-77
2022/11/05 08:48:06;;;;;;;9.57;4.88;;;8.60;94.90;;;;;;5073958;28;20028;-77
2022/11/05 08:50:32;;;;;;;10.90;4.70;;;8.70;94.50;;;;;;5079550;28;20043;-76
2022/11/05 08:52:58;;;;;;;7.40;4.35;;;8.80;94.40;;;;;;5076340;28;20092;-76
2022/11/05 08:55:24;;;;;;;9.75;4.50;;;8.90;93.90;;;;;;5065252;28;20028;-76
2022/11/05 08:58:01;;;;;;;10.00;3.90;;;8.90;94.00;;;;;;5067193;28;20446;-77
2022/11/05 09:00:30;;;;;;;6.93;3.63;;;8.90;94.20;;;;;;5067393;28;20031;-79
2022/11/05 09:03:01;;;;;;;8.27;4.30;;;8.90;94.00;;;;;;5067223;28;20210;-79
2022/11/05 09:05:28;;;;;;;4.82;3.53;;;9.00;94.00;;;;;;5079097;28;20032;-79
2022/11/05 09:07:53;;;;;;;7.63;4.43;;;9.20;93.90;;;;;;5082404;28;20448;-80
2022/11/05 09:10:19;;;;;;;7.75;3.88;;;9.30;93.60;;;;;;5079798;28;20115;-78
2022/11/05 09:12:45;;;;;;;6.88;4.43;;;9.30;93.80;;;;;;5067616;28;20077;-78
2022/11/05 09:15:10;;;;;;;11.07;4.18;;;9.20;94.10;;;;;;5066774;28;20597;-78
2022/11/05 09:17:36;;;;;;;7.43;4.13;;;9.20;94.50;;;;;;5063776;28;20059;-78
2022/11/05 09:20:05;;;;;;;7.45;3.70;;;9.40;94.60;;;;;;5072091;28;20532;-78
2022/11/05 09:22:31;;;;;;;7.53;3.88;;;9.50;94.40;;;;;;5080380;28;20052;-78
2022/11/05 09:24:57;;;;;;;6.93;4.03;;;9.70;93.90;;;;;;5065798;28;20086;-79
2022/11/05 09:27:22;;;;;;;7.75;3.67;;;9.80;93.30;;;;;;5077365;28;20186;-79
2022/11/05 09:29:48;;;;;;;9.55;3.63;;;9.80;93.70;;;;;;5060507;28;20100;-79
2022/11/05 09:32:17;;;;;;;8.10;4.00;;;9.90;93.20;;;;;;5079018;28;20020;-78
2022/11/05 09:34:44;;;;;;;4.65;3.58;;;9.90;93.30;;;;;;5058958;28;20024;-77
2022/11/05 09:37:11;;;;;;;9.40;3.97;;;9.90;93.40;;;;;;5057519;28;20435;-78
2022/11/05 09:39:36;;;;;;;6.20;3.60;;;9.90;93.40;;;;;;5061307;28;20089;-78
2022/11/05 09:42:06;;;;;;;7.63;3.42;;;9.90;93.60;;;;;;5074290;28;20395;-78
2022/11/05 09:44:41;;;;;;;6.22;3.45;;;10.00;93.50;;;;;;5064132;28;20516;-78
2022/11/05 09:47:13;;;;;;;4.85;3.55;;;10.10;93.50;;;;;;5060359;28;20364;-78
2022/11/05 09:49:46;;;;;;;7.57;3.03;;;10.20;93.50;;;;;;5083946;28;20133;-78
2022/11/05 09:52:24;;;;;;;6.38;3.63;;;10.30;93.50;;;;;;5082239;28;20028;-79
2022/11/05 09:54:51;;;;;;;5.75;4.07;;;10.40;93.70;;;;;;5080411;28;20063;-78
2022/11/05 09:57:42;;;;;;;6.80;4.00;;;10.60;93.60;;;;;;5066320;28;20032;-78
2022/11/05 10:00:15;;;;;;;6.47;2.92;;;10.70;93.70;;;;;;5077322;28;20089;-78
2022/11/05 10:02:50;;;;;;;4.88;3.08;;;10.80;92.90;;;;;;5064016;28;20380;-78
2022/11/05 10:05:17;;;;;;;7.40;3.03;;;10.90;93.10;;;;;;5082401;28;20085;-78
2022/11/05 10:07:48;;;;;;;9.82;3.97;;;11.00;92.60;;;;;;5084309;28;20032;-77
2022/11/05 10:10:40;;;;;;;4.13;2.83;;;11.00;92.70;;;;;;5064086;28;20483;-77
2022/11/05 10:13:18;;;;;;;7.25;3.00;;;11.00;92.50;;;;;;5076279;28;20082;-78
2022/11/05 10:15:58;;;;;;;8.80;4.00;;;11.00;93.00;;;;;;5060818;28;20042;-79
2022/11/05 10:18:32;;;;;;;9.40;4.18;;;11.00;93.20;;;;;;5074827;28;20097;-77
2022/11/05 10:20:58;;;;;;;6.35;3.95;;;11.00;93.40;;;;;;5074638;28;20087;-78
2022/11/05 10:23:26;;;;;;;7.50;4.03;;;11.10;93.60;;;;;;5082711;28;20083;-79
2022/11/05 10:25:59;;;;;;;8.88;3.65;;;11.10;93.50;;;;;;5080064;28;20065;-78
2022/11/05 10:28:27;;;;;;;7.47;3.88;;;11.10;93.30;;;;;;5081047;28;20378;-78
2022/11/05 10:31:02;;;;;;;6.68;3.78;;;11.00;93.10;;;;;;5078812;28;20036;-78
2022/11/05 10:33:55;;;;;;;9.13;3.80;;;10.90;93.20;;;;;;5067432;28;20365;-77
2022/11/05 10:36:26;;;;;;;6.70;3.88;;;10.80;93.50;;;;;;5075803;28;20044;-77
2022/11/05 10:38:56;;;;;;;6.30;3.80;;;10.80;94.00;;;;;;5084631;28;20117;-79
2022/11/05 10:41:30;;;;;;;12.10;3.88;;;10.80;94.20;;;;;;5062602;28;20274;-83
2022/11/05 10:44:23;;;;;;;9.13;3.08;;;10.80;95.00;;;;;;5062834;28;20036;-80
2022/11/05 10:47:08;;;;;;;6.82;2.70;;;11.00;96.20;;;;;;5056999;28;20432;-77
2022/11/05 10:49:59;;;;;;;10.27;2.60;;;11.30;96.80;;;;;;5060862;28;20060;-76
2022/11/05 10:52:32;;;;;;;6.85;2.67;;;11.60;96.70;;;;;;5082377;28;20027;-78
2022/11/05 10:55:05;;;;;;;6.22;1.45;;;11.90;96.40;;;;;;5069665;28;20036;-80
2022/11/05 10:57:37;;;;;;;3.50;1.15;;;12.00;96.20;;;;;;5071035;28;20033;-77
2022/11/05 11:00:29;;;;;;;5.22;1.30;;;12.10;96.40;;;;;;5061924;28;20035;-78
2022/11/05 11:02:58;;;;;;;3.08;0.60;;;12.10;96.70;;;;;;5062355;28;20514;-79
2022/11/05 11:05:31;;;;;;;5.88;0.73;;;12.20;96.40;;;;;;5055710;28;20448;-78
2022/11/05 11:07:59;;;;;;;8.20;1.02;;;12.20;96.60;;;;;;5061620;28;20039;-78
2022/11/05 11:10:25;;;;;;;8.52;0.82;;;12.30;96.40;;;;;;5082121;28;20031;-76
2022/11/05 11:12:51;;;;;;;9.77;0.93;;;12.40;96.50;;;;;;5080114;28;20512;-75
2022/11/05 11:15:22;;;;;;;7.22;1.33;;;12.50;96.40;;;;;;5079086;28;20281;-76
2022/11/05 11:17:48;;;;;;;6.70;1.00;;;12.50;96.30;;;;;;5081407;28;20468;-78
2022/11/05 11:20:27;;;;;;;7.63;1.10;;;12.50;96.40;;;;;;5081920;28;20039;-77
2022/11/05 11:23:00;;;;;;;4.47;0.80;;;12.50;96.30;;;;;;5064412;28;20040;-77
2022/11/05 11:25:30;;;;;;;4.57;0.70;;;12.60;96.20;;;;;;5069143;28;20032;-77
2022/11/05 11:28:06;;;;;;;3.15;0.60;;;12.80;96.40;;;;;;5056051;28;20570;-77
2022/11/05 11:30:34;;;;;;;4.45;1.08;;;12.70;95.60;;;;;;5060506;28;20027;-79
2022/11/05 11:33:11;;;;;;;4.43;0.80;;;12.70;95.90;;;;;;5044796;28;20121;-78
2022/11/05 11:36:13;;;;;;;3.55;0.75;;;12.80;95.70;;;;;;5062419;28;20351;-77
2022/11/05 11:39:22;;;;;;;9.27;1.20;;;12.90;96.00;;;;;;5074671;28;20515;-77
2022/11/05 11:42:34;;;;;;;9.38;1.90;;;12.90;95.50;;;;;;5072790;28;20036;-79
2022/11/05 11:45:21;;;;;;;6.72;0.85;;;13.10;95.40;;;;;;5056633;28;20034;-79
2022/11/05 11:47:52;;;;;;;5.70;0.85;;;13.20;95.40;;;;;;5074267;28;20538;-77
2022/11/05 11:50:44;;;;;;;7.18;1.02;;;13.20;94.00;;;;;;5075096;28;20039;-76
2022/11/05 11:53:19;;;;;;;5.47;1.13;;;13.30;94.80;;;;;;5063941;28;20122;-78
2022/11/05 11:56:05;;;;;;;11.18;1.35;;;13.30;94.60;;;;;;5072728;28;20032;-76
2022/11/05 11:58:50;;;;;;;7.68;1.20;;;13.20;94.60;;;;;;5075210;28;20052;-77
2022/11/05 12:01:37;;;;;;;11.40;1.10;;;13.20;94.90;;;;;;5074278;28;20114;-77
2022/11/05 12:04:23;;;;;;;9.30;1.10;;;13.30;94.90;;;;;;5075652;28;20052;-78
2022/11/05 12:07:10;;;;;;;13.45;1.27;;;13.30;93.90;;;;;;5075042;28;20078;-76
2022/11/05 12:10:11;;;;;;;7.32;1.15;;;13.10;95.10;;;;;;5073433;28;20151;-77
2022/11/05 12:13:11;;;;;;;10.85;1.50;;;13.10;94.40;;;;;;5076502;28;20107;-77
2022/11/05 12:15:48;;;;;;;10.82;1.35;;;13.20;94.60;;;;;;5057592;28;20165;-76
2022/11/05 12:18:26;;;;;;;14.32;1.52;;;13.30;94.20;;;;;;5075611;28;20470;-77
2022/11/05 12:21:06;;;;;;;11.52;2.08;;;13.30;94.90;;;;;;5073970;28;20034;-76
2022/11/05 12:24:09;;;;;;;15.63;1.98;;;13.20;94.10;;;;;;5066544;28;20050;-77
2022/11/05 12:26:49;;;;;;;12.00;1.80;;;13.20;94.50;;;;;;5058666;28;20032;-78
2022/11/05 12:30:00;;;;;;;19.80;1.77;;;13.10;95.30;;;;;;5057500;28;20606;-76
2022/11/05 12:33:03;;;;;;;8.55;1.30;;;13.00;94.10;;;;;;5074065;28;20285;-78
2022/11/05 12:35:38;;;;;;;10.02;1.35;;;13.00;94.10;;;;;;5074619;28;20026;-78
2022/11/05 12:38:51;;;;;;;10.40;1.38;;;12.80;93.90;;;;;;5075541;28;20141;-78
2022/11/05 12:41:45;;;;;;;12.30;1.83;;;12.70;93.50;;;;;;5068227;28;20115;-79
2022/11/05 12:44:37;;;;;;;9.60;1.33;;;12.50;93.60;;;;;;5056906;28;20544;-76
2022/11/05 12:47:27;;;;;;;7.50;1.27;;;12.40;93.80;;;;;;5035352;28;20043;-79
2022/11/05 12:49:59;;;;;;;8.02;1.27;;;12.40;94.40;;;;;;5069039;28;20050;-78
2022/11/05 12:52:59;;;;;;;17.38;2.00;;;12.30;94.90;;;;;;4715984;28;10000547;-78
2022/11/05 12:55:30;;;;;;;9.90;1.75;;;12.30;95.60;;;;;;5079695;28;20028;-79
2022/11/05 12:58:06;;;;;;;10.30;1.77;;;12.20;95.30;;;;;;5075162;28;20563;-79
2022/11/05 13:00:33;;;;;;;13.27;1.77;;;12.20;95.70;;;;;;5082660;28;20512;-77
2022/11/05 13:02:59;;;;;;;10.73;1.30;;;12.30;95.50;;;;;;5080493;28;20115;-77
2022/11/05 13:05:32;;;;;;;13.57;1.52;;;12.40;95.60;;;;;;5067904;28;20039;-78
2022/11/05 13:08:14;;;;;;;8.68;1.60;;;12.30;94.70;;;;;;5069421;28;20104;-78
2022/11/05 13:10:42;;;;;;;8.43;1.75;;;12.30;95.10;;;;;;5074856;28;20413;-78
2022/11/05 13:13:15;;;;;;;11.25;2.50;;;12.30;95.50;;;;;;5061112;28;20521;-77
2022/11/05 13:15:50;;;;;;;15.45;2.50;;;12.30;95.50;;;;;;5060713;28;20035;-78
2022/11/05 13:18:22;;;;;;;15.13;3.40;;;12.30;95.20;;;;;;5081504;28;20047;-79
2022/11/05 13:20:51;;;;;;;13.73;2.65;;;12.30;95.50;;;;;;5045163;28;20097;-78
2022/11/05 13:23:25;;;;;;;19.17;2.33;;;12.40;96.10;;;;;;5081724;28;20043;-78
2022/11/05 13:25:59;;;;;;;15.45;2.35;;;12.50;95.70;;;;;;5076602;28;20032;-78
2022/11/05 13:28:41;;;;;;;17.95;2.30;;;12.50;95.80;;;;;;5079124;28;20035;-80
2022/11/05 13:31:12;;;;;;;16.92;2.08;;;12.50;95.90;;;;;;5080680;28;20145;-79
2022/11/05 13:33:47;;;;;;;15.23;2.70;;;12.60;96.20;;;;;;5080610;28;20032;-80
2022/11/05 13:39:15;;;;;;;15.32;2.38;;;12.60;96.40;;;;;;5084333;28;20059;-78
2022/11/05 13:42:00;;;;;;;;;;;12.60;96.40;;;;;;5061494;28;20047;-81
2022/11/05 13:44:43;;;;;;;19.13;2.22;;;12.70;96.40;;;;;;5079404;28;19913;-79
2022/11/05 13:47:46;;;;;;;13.02;2.05;;;12.70;96.60;;;;;;5054287;28;20497;-81
2022/11/05 13:50:35;;;;;;;15.05;1.80;;;12.70;96.00;;;;;;5086324;28;20034;-79
2022/11/05 13:53:30;;;;;;;16.70;1.80;;;12.80;96.20;;;;;;5094088;28;20039;-75